createdAt,value
2018-08-16T00:00:35.806Z,7.50
2018-08-16T00:03:03.039Z,7.77
2018-08-16T00:05:30.292Z,7.90
2018-08-16T00:07:57.484Z,7.90
2018-08-16T00:10:24.689Z,7.73
2018-08-16T00:12:52.224Z,7.77
2018-08-16T00:15:20.408Z,7.93
2018-08-16T00:17:47.612Z,7.63
2018-08-16T00:20:15.152Z,8.00
2018-08-16T00:22:42.747Z,7.30
2018-08-16T00:25:10.380Z,7.53
2018-08-16T00:27:37.592Z,8.17
2018-08-16T00:30:07.285Z,7.43
2018-08-16T00:32:34.458Z,7.70
2018-08-16T00:35:01.621Z,8.60
2018-08-16T00:37:28.727Z,7.57
2018-08-16T00:39:55.879Z,7.93
2018-08-16T00:42:23.084Z,8.47
2018-08-16T00:44:50.260Z,8.67
2018-08-16T00:47:17.415Z,8.50
2018-08-16T00:49:44.664Z,7.83
2018-08-16T00:52:11.768Z,8.40
2018-08-16T00:54:38.892Z,8.50
2018-08-16T00:57:06.104Z,8.57
2018-08-16T00:59:33.223Z,8.83
2018-08-16T01:02:00.384Z,7.43
2018-08-16T01:04:27.624Z,7.60
2018-08-16T01:06:54.773Z,8.33
2018-08-16T01:09:21.920Z,8.37
2018-08-16T01:11:49.081Z,8.47
2018-08-16T01:14:16.201Z,8.50
2018-08-16T01:16:43.460Z,7.90
2018-08-16T01:19:10.648Z,8.13
2018-08-16T01:21:37.775Z,8.90
2018-08-16T01:24:04.932Z,8.33
2018-08-16T01:26:32.090Z,8.57
2018-08-16T01:28:59.295Z,8.23
2018-08-16T01:31:26.459Z,7.87
2018-08-16T01:33:53.623Z,8.73
2018-08-16T01:36:20.859Z,8.67
2018-08-16T01:38:47.961Z,10.03
2018-08-16T01:41:15.199Z,7.83
2018-08-16T01:43:42.296Z,8.10
2018-08-16T01:46:09.456Z,8.13
2018-08-16T01:48:36.616Z,8.30
2018-08-16T01:51:03.745Z,10.30
2018-08-16T01:53:30.976Z,8.80
2018-08-16T01:55:58.139Z,8.73
2018-08-16T01:58:25.276Z,8.63
2018-08-16T02:00:52.415Z,8.37
2018-08-16T02:03:19.567Z,8.80
2018-08-16T02:05:46.829Z,12.77
2018-08-16T02:08:15.043Z,9.60
2018-08-16T02:10:42.204Z,8.27
2018-08-16T02:13:09.326Z,8.00
2018-08-16T02:15:36.440Z,8.27
2018-08-16T02:18:03.758Z,7.80
2018-08-16T02:20:30.872Z,8.37
2018-08-16T02:22:57.991Z,7.87
2018-08-16T02:25:25.167Z,7.87
2018-08-16T02:27:52.274Z,8.33
2018-08-16T02:30:19.525Z,7.83
2018-08-16T02:32:46.725Z,8.17
2018-08-16T02:35:14.138Z,7.93
2018-08-16T02:37:41.290Z,7.33
2018-08-16T02:40:09.132Z,8.40
2018-08-16T02:42:36.452Z,8.23
2018-08-16T02:45:03.657Z,8.17
2018-08-16T02:47:30.840Z,8.67
2018-08-16T02:49:57.987Z,8.30
2018-08-16T02:52:25.108Z,11.47
2018-08-16T02:54:52.373Z,8.20
2018-08-16T02:57:19.500Z,8.53
2018-08-16T02:59:46.636Z,8.10
2018-08-16T03:02:13.807Z,7.83
2018-08-16T03:04:40.908Z,13.33
2018-08-16T03:07:08.141Z,11.33
2018-08-16T03:09:35.333Z,8.90
2018-08-16T03:12:02.474Z,7.77
2018-08-16T03:14:29.610Z,8.07
2018-08-16T03:16:56.976Z,9.00
2018-08-16T03:19:24.182Z,7.67
2018-08-16T03:21:51.325Z,8.70
2018-08-16T03:24:18.515Z,8.77
2018-08-16T03:26:45.661Z,10.00
2018-08-16T03:29:12.800Z,8.97
2018-08-16T03:31:40.580Z,10.63
2018-08-16T03:34:07.825Z,12.67
2018-08-16T03:36:34.960Z,9.67
2018-08-16T03:39:02.671Z,9.40
2018-08-16T03:41:29.787Z,9.47
2018-08-16T03:43:56.962Z,8.67
2018-08-16T03:46:26.203Z,8.47
2018-08-16T03:48:53.429Z,9.53
2018-08-16T03:51:20.546Z,8.27
2018-08-16T03:53:47.731Z,8.00
2018-08-16T03:56:14.973Z,7.70
2018-08-16T03:58:42.122Z,7.77
2018-08-16T04:01:09.312Z,7.70
2018-08-16T04:03:39.544Z,8.27
2018-08-16T04:06:06.740Z,8.20
2018-08-16T04:08:33.957Z,8.07
2018-08-16T04:11:01.084Z,9.13
2018-08-16T04:13:28.172Z,8.77
2018-08-16T04:15:55.386Z,7.83
2018-08-16T04:18:22.486Z,8.50
2018-08-16T04:20:49.697Z,7.90
2018-08-16T04:23:16.840Z,8.30
2018-08-16T04:25:43.959Z,9.30
2018-08-16T04:28:11.092Z,8.73
2018-08-16T04:30:38.304Z,8.07
2018-08-16T04:33:05.485Z,8.77
2018-08-16T04:35:32.671Z,8.83
2018-08-16T04:37:59.911Z,9.00
2018-08-16T04:40:27.032Z,10.33
2018-08-16T04:42:54.230Z,10.63
2018-08-16T04:45:21.498Z,10.70
2018-08-16T04:47:48.677Z,10.50
2018-08-16T04:50:16.330Z,10.73
2018-08-16T04:52:46.050Z,11.00
2018-08-16T04:55:13.442Z,9.70
2018-08-16T04:57:41.780Z,10.73
2018-08-16T05:00:11.276Z,8.60
2018-08-16T05:02:39.776Z,9.50
2018-08-16T05:05:07.436Z,9.87
2018-08-16T05:07:34.829Z,9.13
2018-08-16T05:10:02.174Z,9.20
2018-08-16T05:12:29.285Z,9.47
2018-08-16T05:14:57.262Z,10.30
2018-08-16T05:17:24.547Z,11.10
2018-08-16T05:19:53.625Z,11.20
2018-08-16T05:22:20.946Z,9.80
2018-08-16T05:24:48.081Z,9.77
2018-08-16T05:27:16.075Z,10.63
2018-08-16T05:29:43.252Z,10.70
2018-08-16T05:32:10.576Z,9.90
2018-08-16T05:34:37.788Z,10.20
2018-08-16T05:37:05.014Z,10.90
2018-08-16T05:39:32.475Z,15.03
2018-08-16T05:41:59.636Z,10.97
2018-08-16T05:44:27.054Z,12.93
2018-08-16T05:46:54.327Z,17.40
2018-08-16T05:49:21.849Z,18.37
2018-08-16T05:51:49.012Z,21.30
2018-08-16T05:54:16.141Z,25.33
2018-08-16T05:56:43.625Z,29.23
2018-08-16T05:59:10.966Z,15.23
2018-08-16T06:01:38.163Z,16.40
2018-08-16T06:04:05.527Z,15.33
2018-08-16T06:06:32.698Z,14.10
2018-08-16T06:08:59.807Z,10.67
2018-08-16T06:11:27.341Z,12.33
2018-08-16T06:13:54.535Z,10.93
2018-08-16T06:16:21.714Z,11.27
2018-08-16T06:18:48.823Z,10.90
2018-08-16T06:21:16.023Z,10.47
2018-08-16T06:23:43.236Z,9.30
2018-08-16T06:26:10.390Z,8.40
2018-08-16T06:28:37.559Z,8.73
2018-08-16T06:31:04.763Z,8.33
2018-08-16T06:33:31.925Z,9.67
2018-08-16T06:35:59.204Z,8.03
2018-08-16T06:38:26.299Z,10.00
2018-08-16T06:40:53.429Z,6.83
2018-08-16T06:43:20.900Z,10.57
2018-08-16T06:45:48.024Z,9.77
2018-08-16T06:48:15.259Z,6.97
2018-08-16T06:50:42.428Z,9.27
2018-08-16T06:53:09.572Z,7.83
2018-08-16T06:55:36.717Z,7.60
2018-08-16T06:58:03.929Z,7.27
2018-08-16T07:00:31.277Z,9.07
2018-08-16T07:02:58.401Z,10.77
2018-08-16T07:05:25.593Z,10.83
2018-08-16T07:07:53.583Z,7.47
2018-08-16T07:10:20.769Z,7.97
2018-08-16T07:12:48.089Z,7.13
2018-08-16T07:15:15.757Z,6.60
2018-08-16T07:17:43.564Z,6.50
2018-08-16T07:20:10.751Z,6.20
2018-08-16T07:22:37.948Z,5.70
2018-08-16T07:25:05.694Z,7.33
2018-08-16T07:27:32.921Z,6.00
2018-08-16T07:30:00.246Z,7.93
2018-08-16T07:32:27.403Z,7.63
2018-08-16T07:34:54.541Z,5.73
2018-08-16T07:37:21.766Z,5.67
2018-08-16T07:39:48.916Z,6.80
2018-08-16T07:42:16.114Z,8.03
2018-08-16T07:44:43.627Z,6.90
2018-08-16T07:47:10.762Z,5.47
2018-08-16T07:49:38.117Z,7.77
2018-08-16T07:52:05.389Z,4.97
2018-08-16T07:54:32.475Z,7.23
2018-08-16T07:56:59.723Z,7.50
2018-08-16T07:59:26.891Z,5.23
2018-08-16T08:01:54.220Z,5.90
2018-08-16T08:04:21.384Z,6.37
2018-08-16T08:06:48.526Z,5.83
2018-08-16T08:09:15.744Z,7.13
2018-08-16T08:11:42.935Z,4.70
2018-08-16T08:14:10.407Z,6.70
2018-08-16T08:16:37.557Z,5.60
2018-08-16T08:19:04.875Z,5.33
2018-08-16T08:21:32.061Z,6.43
2018-08-16T08:23:59.340Z,6.10
2018-08-16T08:26:27.009Z,7.80
2018-08-16T08:28:54.124Z,6.03
2018-08-16T08:31:21.388Z,5.13
2018-08-16T08:33:48.577Z,6.90
2018-08-16T08:36:27.509Z,9.70
2018-08-16T08:38:54.804Z,4.27
2018-08-16T08:41:21.924Z,6.17
2018-08-16T08:44:00.604Z,4.80
2018-08-16T08:46:27.849Z,4.03
2018-08-16T08:48:55.393Z,6.30
2018-08-16T08:51:22.697Z,3.83
2018-08-16T08:54:11.698Z,3.50
2018-08-16T08:56:50.608Z,5.60
2018-08-16T08:59:17.826Z,6.40
2018-08-16T09:01:45.074Z,4.80
2018-08-16T09:04:12.299Z,4.43
2018-08-16T09:06:39.520Z,9.90
2018-08-16T09:09:07.468Z,4.17
2018-08-16T09:11:46.073Z,5.47
2018-08-16T09:14:24.691Z,4.80
2018-08-16T09:16:52.027Z,3.40
2018-08-16T09:19:19.285Z,3.27
2018-08-16T09:21:46.609Z,3.83
2018-08-16T09:24:13.786Z,3.70
2018-08-16T09:26:42.070Z,3.30
2018-08-16T09:29:20.997Z,3.50
2018-08-16T09:31:59.706Z,3.50
2018-08-16T09:34:26.912Z,3.53
2018-08-16T09:36:54.117Z,3.43
2018-08-16T09:39:21.458Z,5.23
2018-08-16T09:41:49.703Z,3.10
2018-08-16T09:44:16.857Z,4.30
2018-08-16T09:47:05.451Z,3.23
2018-08-16T09:49:34.790Z,4.07
2018-08-16T09:52:02.222Z,3.30
2018-08-16T09:54:29.458Z,4.73
2018-08-16T09:56:57.812Z,2.90
2018-08-16T09:59:24.958Z,3.57
2018-08-16T10:01:52.277Z,4.90
2018-08-16T10:04:19.536Z,6.83
2018-08-16T10:06:46.798Z,4.23
2018-08-16T10:09:18.921Z,3.17
2018-08-16T10:11:46.369Z,3.30
2018-08-16T10:14:13.745Z,5.13
2018-08-16T10:16:40.984Z,3.10
2018-08-16T10:19:08.116Z,3.90
2018-08-16T10:21:35.316Z,3.40
2018-08-16T10:24:03.127Z,4.70
2018-08-16T10:26:30.325Z,3.27
2018-08-16T10:28:57.548Z,3.97
2018-08-16T10:31:24.714Z,3.97
2018-08-16T10:33:51.931Z,4.07
2018-08-16T10:36:19.065Z,3.23
2018-08-16T10:38:46.261Z,4.47
2018-08-16T10:41:13.455Z,4.10
2018-08-16T10:43:40.585Z,3.10
2018-08-16T10:46:07.805Z,3.30
2018-08-16T10:48:34.916Z,4.20
2018-08-16T10:51:02.477Z,3.87
2018-08-16T10:53:29.730Z,4.07
2018-08-16T10:55:57.189Z,5.53
2018-08-16T10:58:24.340Z,4.63
2018-08-16T11:00:51.553Z,5.00
2018-08-16T11:03:18.778Z,4.17
2018-08-16T11:05:45.999Z,3.40
2018-08-16T11:08:13.153Z,3.27
2018-08-16T11:10:40.293Z,3.83
2018-08-16T11:13:07.432Z,6.13
2018-08-16T11:15:34.648Z,3.33
2018-08-16T11:18:01.969Z,4.03
2018-08-16T11:20:29.132Z,3.37
2018-08-16T11:22:56.349Z,3.37
2018-08-16T11:25:23.555Z,3.50
2018-08-16T11:27:50.751Z,5.17
2018-08-16T11:30:18.101Z,3.92
2018-08-16T11:32:45.213Z,4.55
2018-08-16T11:35:12.623Z,3.30
2018-08-16T11:37:40.039Z,4.75
2018-08-16T11:40:07.636Z,4.10
2018-08-16T11:42:34.819Z,2.95
2018-08-16T11:45:02.019Z,4.30
2018-08-16T11:47:29.214Z,5.42
2018-08-16T11:49:56.340Z,3.55
2018-08-16T11:52:23.558Z,4.28
2018-08-16T11:54:50.747Z,3.42
2018-08-16T11:57:17.888Z,4.12
2018-08-16T11:59:45.027Z,4.05
2018-08-16T12:02:12.283Z,3.90
2018-08-16T12:04:39.860Z,4.42
2018-08-16T12:07:07.108Z,3.67
2018-08-16T12:09:34.282Z,3.67
2018-08-16T12:12:01.431Z,3.27
2018-08-16T12:14:28.627Z,3.42
2018-08-16T12:16:55.816Z,3.77
2018-08-16T12:19:23.044Z,4.25
2018-08-16T12:21:50.198Z,3.90
2018-08-16T12:24:17.337Z,3.22
2018-08-16T12:26:44.062Z,3.43
2018-08-16T12:29:11.277Z,3.53
2018-08-16T12:31:38.942Z,4.03
2018-08-16T12:34:06.109Z,4.80
2018-08-16T12:36:33.273Z,4.10
2018-08-16T12:39:00.431Z,4.20
2018-08-16T12:41:27.597Z,7.43
2018-08-16T12:43:54.832Z,3.93
2018-08-16T12:46:21.984Z,5.23
2018-08-16T12:48:49.118Z,4.90
2018-08-16T12:51:16.278Z,4.40
2018-08-16T12:53:43.641Z,4.30
2018-08-16T12:56:10.653Z,5.60
2018-08-16T12:58:37.831Z,4.40
2018-08-16T13:01:05.047Z,3.40
2018-08-16T13:03:32.176Z,3.77
2018-08-16T13:05:59.428Z,4.90
2018-08-16T13:08:26.592Z,3.43
2018-08-16T13:10:53.715Z,4.10
2018-08-16T13:13:20.878Z,4.40
2018-08-16T13:15:48.025Z,7.17
2018-08-16T13:18:15.201Z,3.60
2018-08-16T13:20:42.467Z,4.77
2018-08-16T13:23:11.655Z,4.93
2018-08-16T13:25:38.785Z,4.77
2018-08-16T13:28:05.966Z,3.90
2018-08-16T13:30:33.231Z,4.63
2018-08-16T13:33:00.421Z,4.13
2018-08-16T13:35:27.587Z,3.77
2018-08-16T13:37:54.721Z,8.10
2018-08-16T13:40:21.831Z,4.10
2018-08-16T13:42:49.070Z,5.27
2018-08-16T13:45:16.319Z,4.83
2018-08-16T13:47:43.433Z,4.47
2018-08-16T13:50:10.611Z,4.80
2018-08-16T13:52:37.744Z,4.73
2018-08-16T13:55:05.072Z,5.27
2018-08-16T13:57:32.295Z,3.97
2018-08-16T13:59:59.425Z,6.07
2018-08-16T14:02:26.572Z,3.77
2018-08-16T14:04:53.736Z,3.57
2018-08-16T14:07:20.934Z,4.20
2018-08-16T14:09:48.129Z,4.37
2018-08-16T14:12:15.357Z,3.97
2018-08-16T14:14:42.500Z,3.80
2018-08-16T14:17:09.661Z,5.47
2018-08-16T14:19:36.880Z,5.17
2018-08-16T14:22:04.130Z,4.00
2018-08-16T14:24:31.232Z,4.10
2018-08-16T14:26:58.401Z,5.33
2018-08-16T14:29:25.539Z,8.20
2018-08-16T14:31:52.796Z,3.93
2018-08-16T14:34:20.043Z,5.23
2018-08-16T14:36:47.165Z,4.13
2018-08-16T14:39:14.315Z,6.00
2018-08-16T14:41:41.824Z,5.73
2018-08-16T14:44:09.020Z,5.70
2018-08-16T14:46:36.744Z,4.93
2018-08-16T14:49:03.930Z,5.27
2018-08-16T14:51:31.252Z,4.07
2018-08-16T14:53:58.292Z,7.23
2018-08-16T14:56:25.515Z,4.70
2018-08-16T14:58:52.704Z,4.63
2018-08-16T15:01:19.854Z,4.43
2018-08-16T15:03:47.167Z,4.07
2018-08-16T15:06:14.296Z,3.70
2018-08-16T15:08:41.631Z,4.10
2018-08-16T15:11:08.861Z,5.00
2018-08-16T15:13:36.066Z,4.37
2018-08-16T15:16:03.229Z,4.50
2018-08-16T15:18:30.394Z,3.83
2018-08-16T15:20:57.575Z,4.03
2018-08-16T15:23:24.772Z,4.70
2018-08-16T15:25:51.921Z,4.43
2018-08-16T15:28:19.846Z,5.93
2018-08-16T15:30:46.974Z,4.27
2018-08-16T15:33:14.230Z,3.90
2018-08-16T15:35:41.449Z,4.13
2018-08-16T15:38:08.634Z,6.53
2018-08-16T15:40:35.838Z,6.87
2018-08-16T15:43:02.963Z,3.93
2018-08-16T15:45:30.276Z,5.67
2018-08-16T15:47:57.560Z,5.10
2018-08-16T15:50:24.642Z,5.50
2018-08-16T15:52:51.839Z,6.47
2018-08-16T15:55:19.013Z,4.87
2018-08-16T15:57:46.169Z,5.60
2018-08-16T16:00:13.426Z,4.93
2018-08-16T16:02:41.988Z,4.20
2018-08-16T16:05:09.240Z,5.13
2018-08-16T16:07:36.690Z,3.97
2018-08-16T16:10:04.648Z,4.60
2018-08-16T16:12:31.874Z,4.07
2018-08-16T16:14:59.089Z,4.37
2018-08-16T16:17:26.295Z,7.43
2018-08-16T16:19:53.528Z,4.43
2018-08-16T16:22:20.807Z,5.33
2018-08-16T16:24:48.172Z,4.10
2018-08-16T16:27:15.359Z,4.77
2018-08-16T16:29:42.524Z,5.03
2018-08-16T16:32:10.244Z,4.50
2018-08-16T16:34:37.532Z,5.23
2018-08-16T16:37:04.815Z,4.90
2018-08-16T16:39:32.015Z,8.50
2018-08-16T16:42:00.829Z,4.23
2018-08-16T16:44:28.706Z,5.37
2018-08-16T16:46:55.963Z,4.30
2018-08-16T16:49:23.851Z,3.90
2018-08-16T16:51:51.639Z,4.50
2018-08-16T16:54:18.932Z,5.60
2018-08-16T16:56:46.076Z,3.83
2018-08-16T16:59:14.499Z,5.67
2018-08-16T17:01:42.230Z,4.40
2018-08-16T17:04:09.680Z,4.73
2018-08-16T17:06:36.685Z,5.00
2018-08-16T17:09:06.083Z,6.40
2018-08-16T17:11:33.299Z,4.40
2018-08-16T17:14:01.039Z,4.80
2018-08-16T17:16:28.215Z,5.63
2018-08-16T17:18:55.356Z,4.23
2018-08-16T17:21:22.761Z,6.30
2018-08-16T17:23:49.995Z,5.77
2018-08-16T17:26:17.253Z,6.20
2018-08-16T17:28:44.336Z,4.40
2018-08-16T17:31:11.577Z,4.93
2018-08-16T17:33:38.714Z,5.07
2018-08-16T17:36:05.963Z,4.43
2018-08-16T17:38:33.198Z,5.60
2018-08-16T17:41:00.417Z,5.20
2018-08-16T17:43:27.576Z,4.33
2018-08-16T17:45:55.768Z,4.27
2018-08-16T17:48:22.991Z,4.70
2018-08-16T17:50:50.199Z,6.23
2018-08-16T17:53:17.347Z,8.97
2018-08-16T17:55:44.491Z,4.83
2018-08-16T17:58:11.611Z,3.90
2018-08-16T18:00:38.901Z,5.87
2018-08-16T18:03:06.130Z,4.43
2018-08-16T18:05:33.271Z,3.97
2018-08-16T18:08:00.446Z,4.33
2018-08-16T18:10:27.587Z,6.13
2018-08-16T18:12:54.857Z,5.10
2018-08-16T18:15:22.106Z,4.97
2018-08-16T18:17:49.220Z,7.63
2018-08-16T18:20:16.389Z,6.90
2018-08-16T18:22:43.596Z,5.13
2018-08-16T18:25:10.786Z,4.70
2018-08-16T18:27:38.002Z,6.53
2018-08-16T18:30:06.748Z,5.07
2018-08-16T18:32:33.885Z,5.50
2018-08-16T18:35:01.110Z,5.50
2018-08-16T18:37:28.327Z,5.53
2018-08-16T18:39:55.644Z,7.40
2018-08-16T18:42:22.825Z,6.03
2018-08-16T18:44:50.070Z,4.63
2018-08-16T18:47:17.183Z,5.87
2018-08-16T18:49:44.384Z,5.53
2018-08-16T18:52:11.664Z,4.47
2018-08-16T18:54:38.826Z,4.83
2018-08-16T18:57:05.959Z,5.10
2018-08-16T18:59:33.174Z,4.83
2018-08-16T19:02:00.447Z,4.60
2018-08-16T19:04:27.680Z,4.50
2018-08-16T19:06:54.852Z,5.00
2018-08-16T19:09:21.981Z,5.50
2018-08-16T19:11:49.106Z,5.50
2018-08-16T19:14:16.380Z,4.40
2018-08-16T19:16:44.061Z,4.50
2018-08-16T19:19:11.216Z,5.27
2018-08-16T19:21:38.425Z,4.40
2018-08-16T19:24:05.613Z,4.90
2018-08-16T19:26:33.014Z,6.10
2018-08-16T19:29:00.317Z,6.43
2018-08-16T19:31:27.447Z,6.00
2018-08-16T19:33:54.621Z,5.23
2018-08-16T19:36:21.774Z,6.17
2018-08-16T19:38:48.986Z,5.13
2018-08-16T19:41:16.210Z,5.67
2018-08-16T19:43:43.436Z,5.63
2018-08-16T19:46:10.568Z,5.80
2018-08-16T19:48:37.961Z,5.47
2018-08-16T19:51:05.392Z,5.37
2018-08-16T19:53:32.616Z,5.83
2018-08-16T19:55:59.753Z,6.07
2018-08-16T19:58:27.101Z,5.80
2018-08-16T20:00:54.306Z,5.50
2018-08-16T20:03:21.618Z,6.73
2018-08-16T20:05:48.964Z,5.87
2018-08-16T20:08:16.086Z,6.43
2018-08-16T20:10:43.259Z,5.80
2018-08-16T20:13:10.549Z,8.30
2018-08-16T20:15:37.815Z,6.63
2018-08-16T20:18:05.124Z,5.80
2018-08-16T20:20:32.281Z,6.67
2018-08-16T20:22:59.428Z,7.20
2018-08-16T20:25:26.607Z,5.87
2018-08-16T20:27:53.846Z,6.90
2018-08-16T20:30:21.265Z,5.57
2018-08-16T20:32:48.419Z,7.33
2018-08-16T20:35:15.635Z,8.77
2018-08-16T20:37:42.825Z,5.93
2018-08-16T20:40:10.100Z,5.70
2018-08-16T20:42:37.413Z,6.13
2018-08-16T20:45:05.112Z,6.80
2018-08-16T20:47:32.397Z,8.77
2018-08-16T20:49:59.591Z,5.97
2018-08-16T20:52:26.787Z,5.93
2018-08-16T20:54:54.021Z,6.63
2018-08-16T20:57:21.313Z,6.97
2018-08-16T20:59:48.500Z,7.10
2018-08-16T21:02:15.724Z,8.37
2018-08-16T21:04:42.978Z,7.43
2018-08-16T21:07:10.183Z,6.50
2018-08-16T21:09:37.341Z,7.30
2018-08-16T21:12:04.552Z,6.43
2018-08-16T21:14:31.691Z,7.93
2018-08-16T21:16:58.888Z,6.60
2018-08-16T21:19:26.420Z,6.27
2018-08-16T21:22:03.783Z,6.00
2018-08-16T21:24:30.961Z,5.93
2018-08-16T21:26:58.108Z,6.30
2018-08-16T21:29:25.344Z,5.77
2018-08-16T21:31:52.527Z,6.10
2018-08-16T21:34:19.655Z,6.07
2018-08-16T21:36:47.451Z,6.20
2018-08-16T21:39:14.701Z,6.97
2018-08-16T21:41:41.903Z,10.13
2018-08-16T21:44:10.105Z,6.23
2018-08-16T21:46:37.504Z,6.33
2018-08-16T21:49:04.656Z,6.27
2018-08-16T21:51:31.850Z,6.37
2018-08-16T21:53:59.180Z,6.40
2018-08-16T21:56:26.307Z,7.03
2018-08-16T21:58:53.445Z,6.37
2018-08-16T22:01:20.623Z,6.27
2018-08-16T22:03:47.937Z,5.77
2018-08-16T22:06:27.719Z,6.20
2018-08-16T22:08:54.839Z,7.50
2018-08-16T22:11:21.987Z,8.53
2018-08-16T22:13:49.234Z,7.70
2018-08-16T22:16:16.454Z,7.43
2018-08-16T22:18:43.647Z,8.03
2018-08-16T22:21:11.007Z,7.00
2018-08-16T22:23:38.192Z,6.47
2018-08-16T22:26:05.569Z,6.07
2018-08-16T22:28:32.897Z,6.23
2018-08-16T22:31:00.511Z,5.97
2018-08-16T22:33:27.976Z,8.70
2018-08-16T22:35:55.241Z,5.70
2018-08-16T22:38:22.485Z,6.60
2018-08-16T22:40:49.727Z,7.40
2018-08-16T22:43:21.835Z,5.50
2018-08-16T22:45:48.988Z,6.07
2018-08-16T22:48:16.160Z,5.77
2018-08-16T22:50:43.417Z,5.43
2018-08-16T22:53:10.659Z,5.83
2018-08-16T22:55:37.827Z,5.90
2018-08-16T22:58:05.629Z,5.40
2018-08-16T23:00:32.762Z,5.53
2018-08-16T23:02:59.972Z,7.50
2018-08-16T23:05:27.232Z,8.03
2018-08-16T23:07:54.379Z,6.30
2018-08-16T23:10:21.768Z,7.50
2018-08-16T23:12:48.943Z,6.43
2018-08-16T23:15:16.145Z,6.37
2018-08-16T23:17:43.337Z,6.27
2018-08-16T23:20:10.596Z,5.90
2018-08-16T23:22:37.860Z,6.13
2018-08-16T23:25:05.183Z,5.83
2018-08-16T23:27:32.415Z,5.70
2018-08-16T23:29:59.602Z,5.70
2018-08-16T23:32:26.822Z,6.37
2018-08-16T23:34:54.117Z,6.00
2018-08-16T23:37:21.284Z,5.37
2018-08-16T23:39:48.630Z,5.27
2018-08-16T23:42:16.264Z,5.97
2018-08-16T23:44:43.431Z,5.73
2018-08-16T23:47:10.594Z,5.90
2018-08-16T23:49:37.784Z,5.60
2018-08-16T23:52:05.017Z,6.43
2018-08-16T23:54:32.276Z,5.07
2018-08-16T23:56:59.458Z,5.73
2018-08-16T23:59:26.699Z,7.37
